Terminal Aerodrome Forecast
Issued by NWS

Home | Current Version | Previous Version | Text Only | Print | Product List | Glossary On
Versions: 1 2 3 4 5 6 7 8 9 10 11 12 13 14 15 16 17 18 19 20 21 22 23 24 25 26 27 28 29 30
000
FTUS45 KTWC 021737
TAFOLS
TAF
KOLS 021737Z 0218/0318 20006KT P6SM SCT070 SCT110
     FM022000 21008KT P6SM VCTS BKN060CB BKN100
      TEMPO 0221/0224 VRB15G35KT 3SM TSRA FEW030 BKN050CB OVC090
     FM030000 18006KT P6SM VCSH BKN060 OVC110
     FM030600 VRB04KT P6SM SCT080 BKN150=

USA.gov is the U.S. government's official web portal to all federal, state and local government web resources and services.